• Join FlightAware (Why Join?)
  • Login
  • US Flag 
12:34PM EDT


 

Airport Tracker/Info


-or-


 

Live Flight TrackerFlight Track Log ✈ N1177R ✈ 03-May-2013 ✈ KCEU - 4D0

Flight Track Log - Related Links

Times and Time Zones

All times are in EDT time to prevent confusion due to time zone crossing. See the N1177R flight status page for this flight to view local times or setup timezone preferences in your user account.

Time Position Orientation Groundspeed Altitude Reporting Facility
EDT Latitude Longitude Course Direction KTS MPH feet Rate Location/Type
11:55AM 34.7467 -82.8758 352° North 101 116 2,800  Level Atlanta Center
11:56AM 34.7758 -82.8806 352° North 101 116 3,600 720 Climbing Atlanta Center
11:57AM 34.8053 -82.8928 341° North 107 123 4,300 600 Climbing Atlanta Center
11:58AM 34.8344 -82.9000 349° North 107 123 4,800 600 Climbing Atlanta Center
11:59AM 34.8636 -82.8944 North 107 123 5,500 660 Climbing Atlanta Center
12:00PM 34.9135 -82.9356 352° North  Level FlightAware Approximate
12:00PM 34.8908 -82.8892 North 102 117 6,200  Level Atlanta Center
12:01PM 34.9178 -82.8711 29° Northeast 102 117 6,800 600 Climbing Atlanta Center
12:02PM 34.9492 -82.8681 North 102 117 7,400 600 Climbing Atlanta Center
12:03PM 34.9825 -82.8753 350° North 107 123 8,100 600 Climbing Atlanta Center
12:04PM 35.0158 -82.8797 354° North 112 129 8,600 540 Climbing Atlanta Center
12:05PM 35.0514 -82.8894 347° North 117 135 9,200 480 Climbing Atlanta Center
12:06PM 35.0850 -82.8967 350° North 123 142 9,600 360 Climbing Atlanta Center
12:07PM 35.1206 -82.9036 351° North 123 142 10,000 240 Climbing Atlanta Center
12:08PM 35.1622 -82.9056 358° North 128 147 10,100  Climbing Atlanta Center
12:09PM 35.2019 -82.9103 354° North 147 169 10,100  Level Atlanta Center
12:10PM 35.2458 -82.9069 North 147 169 10,100  Level Atlanta Center
12:11PM 35.2894 -82.9014 North 152 175 10,100  Level Atlanta Center
12:12PM 35.3353 -82.9033 358° North 157 181 10,100  Level Atlanta Center
12:13PM 35.3772 -82.9003 North 152 175 10,100  Level Atlanta Center
12:14PM 35.4250 -82.9019 358° North 157 181 10,100  Level Atlanta Center
12:15PM 35.4731 -82.9039 358° North 162 186 10,100  Level Atlanta Center
12:16PM 35.5169 -82.9083 355° North 162 186 10,100  Level Atlanta Center
12:17PM 35.5608 -82.9078 North 157 181 10,100  Level Atlanta Center
12:18PM 35.6025 -82.9072 North 157 181 10,100  Level Atlanta Center
12:19PM 35.6464 -82.9067 North 157 181 10,100  Level Atlanta Center
12:20PM 35.6858 -82.9086 358° North 157 181 10,100 -120 Level Atlanta Center
12:21PM 35.7319 -82.9081 North 157 181 9,900 -120 Descending Atlanta Center
12:23PM 35.8175 -82.9053 North 158 182 9,900  Level Indianapolis Center
12:24PM 35.8597 -82.9078 357° North 155 178 9,900  Level Indianapolis Center
12:25PM 35.9011 -82.9050 North 150 173 9,900  Level Indianapolis Center
12:26PM 35.9439 -82.9067 358° North 150 173 9,900  Level Indianapolis Center
12:27PM 35.9864 -82.9058 North 153 176 9,900  Level Indianapolis Center
12:28PM 36.0281 -82.9069 359° North 150 173 9,900  Level Indianapolis Center
12:29PM 36.0683 -82.9208 344° North 149 171 9,900  Level Indianapolis Center
12:30PM 36.1167 -82.9367 345° North 152 175 9,900  Level Indianapolis Center
12:31PM 36.1586 -82.9478 348° North 153 176 9,900  Level Indianapolis Center
12:32PM 36.2011 -82.9569 350° North 155 178 9,900  Level Indianapolis Center
12:33PM 36.2436 -82.9681 348° North 156 180 9,900  Level Indianapolis Center
12:34PM 36.2878 -82.9800 348° North 159 183 9,900  Level Indianapolis Center
12:35PM 36.3311 -82.9889 351° North 159 183 9,900  Level Indianapolis Center
12:36PM 36.3797 -83.0014 348° North 155 178 9,900 60 Level Indianapolis Center
12:37PM 36.3875 -83.0044 342° North 155 178 10,000  Climbing Atlanta Center
12:39PM 36.4711 -83.0267 348° North 159 183 10,000 -60 Level Atlanta Center
12:40PM 36.5508 -83.0439 350° North 156 180 9,900 -60 Descending Indianapolis Center
12:41PM 36.5939 -83.0547 349° North 156 180 9,900  Level Indianapolis Center
12:42PM 36.6431 -83.0675 348° North 155 178 9,900  Level Indianapolis Center
12:43PM 36.6856 -83.0775 349° North 154 177 9,900  Level Indianapolis Center
12:45PM 36.7286 -83.0889 348° North 156 180 9,900  Level Indianapolis Center
12:46PM 36.7717 -83.0994 349° North 156 180 9,900  Level Indianapolis Center
12:47PM 36.8150 -83.1100 349° North 157 181 10,000  Climbing Indianapolis Center
12:48PM 36.8575 -83.1208 348° North 156 180 10,000  Level Indianapolis Center
12:49PM 36.9014 -83.1317 349° North 158 182 10,000  Level Indianapolis Center
12:50PM 36.9514 -83.1439 349° North 156 180 10,000  Level Indianapolis Center
12:51PM 36.9950 -83.1556 348° North 158 182 10,000  Level Indianapolis Center
12:52PM 37.0383 -83.1658 349° North 158 182 10,000  Level Indianapolis Center
12:53PM 37.0814 -83.1769 348° North 156 180 10,000  Level Indianapolis Center
12:54PM 37.1244 -83.1875 349° North 157 181 10,000  Level Indianapolis Center
12:55PM 37.1664 -83.1972 350° North 155 178 10,100  Climbing Indianapolis Center
12:56PM 37.2156 -83.2097 349° North 154 177 10,100  Level Indianapolis Center
12:57PM 37.2589 -83.2222 347° North 158 182 10,100  Level Indianapolis Center
12:58PM 37.3022 -83.2328 349° North 159 183 10,100  Level Indianapolis Center
12:59PM 37.3447 -83.2431 349° North 156 180 10,100  Level Indianapolis Center
01:00PM 37.3875 -83.2536 349° North 155 178 10,100  Level Indianapolis Center
01:01PM 37.4306 -83.2650 348° North 157 181 10,100  Level Indianapolis Center
01:02PM 37.4811 -83.2778 349° North 158 182 10,100 -60 Level Indianapolis Center
01:03PM 37.5244 -83.2900 347° North 158 182 10,000 -60 Descending Indianapolis Center
01:04PM 37.5683 -83.3006 349° North 160 184 10,000  Level Indianapolis Center
01:05PM 37.6106 -83.3108 349° North 156 180 10,000  Level Indianapolis Center
01:06PM 37.6550 -83.3206 350° North 159 183 10,000  Level Indianapolis Center
01:07PM 37.6981 -83.3344 346° North 160 184 10,000  Level Indianapolis Center
01:08PM 37.7489 -83.3469 349° North 160 184 10,000  Level Indianapolis Center
01:09PM 37.7942 -83.3586 348° North 165 190 10,000  Level Indianapolis Center
01:10PM 37.8386 -83.3686 350° North 162 186 10,000  Level Indianapolis Center
01:11PM 37.8819 -83.3806 348° North 160 184 10,000  Level Indianapolis Center
01:12PM 37.9267 -83.3922 348° North 163 188 10,000  Level Indianapolis Center
01:13PM 37.9781 -83.4044 349° North 161 185 10,000  Level Indianapolis Center
01:14PM 38.0239 -83.4172 348° North 166 191 10,000  Level Indianapolis Center
01:16PM 38.0686 -83.4283 349° North 164 189 10,000  Level Indianapolis Center
01:17PM 38.1133 -83.4411 347° North 163 188 10,100  Climbing Indianapolis Center
01:18PM 38.1594 -83.4522 349° North 167 192 10,100  Level Indianapolis Center
01:19PM 38.2047 -83.4642 348° North 166 191 10,100  Level Indianapolis Center
01:20PM 38.2569 -83.4744 351° North 163 188 10,100  Level Indianapolis Center
01:21PM 38.3011 -83.4872 347° North 163 188 10,100  Level Indianapolis Center
01:22PM 38.3447 -83.5019 345° North 162 186 10,100 -60 Level Indianapolis Center
01:23PM 38.3894 -83.5150 347° North 164 189 10,000 -60 Descending Indianapolis Center
01:24PM 38.4350 -83.5261 349° North 166 191 10,000  Level Indianapolis Center
01:25PM 38.4867 -83.5400 348° North 164 189 10,000  Level Indianapolis Center
01:26PM 38.5319 -83.5508 349° North 164 189 10,000  Level Indianapolis Center
01:27PM 38.5761 -83.5608 350° North 162 186 10,000  Level Indianapolis Center
01:28PM 38.6206 -83.5736 347° North 163 188 10,000  Level Indianapolis Center
01:29PM 38.6631 -83.5858 347° North 163 188 10,000  Level Indianapolis Center
01:30PM 38.7081 -83.5975 349° North 164 189 10,000  Level Indianapolis Center
01:31PM 38.7603 -83.6100 349° North 162 186 10,000  Level Indianapolis Center
01:32PM 38.8050 -83.6219 348° North 162 186 10,000  Level Indianapolis Center
01:33PM 38.8489 -83.6336 348° North 161 185 10,000  Level Indianapolis Center
01:34PM 38.8933 -83.6461 348° North 162 186 10,000  Level Indianapolis Center
01:35PM 38.9378 -83.6561 350° North 161 185 10,000  Level Indianapolis Center
01:36PM 38.9814 -83.6703 346° North 160 184 10,000  Level Indianapolis Center
01:37PM 39.0264 -83.6819 349° North 163 188 10,000  Level Indianapolis Center
01:38PM 39.0633 -83.6908 349° North 162 186 10,000  Level Indianapolis Center
01:38PM 39.0703 -83.6917 355° North 159 183 10,000  Level Indianapolis Center
01:39PM 39.1211 -83.7067 347° North 159 183 10,000  Level Indianapolis Center
01:40PM 39.1372 -83.7108 349° North 160 184 10,000  Level Indianapolis Center
01:40PM 39.1650 -83.7178 349° North 157 181 10,000  Level Indianapolis Center
01:41PM 39.1844 -83.7219 351° North 158 182 10,000  Level Indianapolis Center
01:41PM 39.2097 -83.7300 346° North 161 185 10,000  Level Indianapolis Center
01:42PM 39.2236 -83.7322 353° North 159 183 10,000  Level Indianapolis Center
01:42PM 39.2525 -83.7417 346° North 157 181 10,000  Level Indianapolis Center
01:43PM 39.2706 -83.7464 349° North 160 184 10,000 60 Level Indianapolis Center
01:43PM 39.2975 -83.7528 350° North 163 188 10,100  Climbing Indianapolis Center
01:44PM 39.3136 -83.7597 342° North 159 183 10,000  Descending Indianapolis Center
01:44PM 39.3400 -83.7656 350° North 157 181 10,100  Climbing Indianapolis Center
01:45PM 39.3589 -83.7708 348° North 159 183 10,000  Descending Indianapolis Center
01:45PM 39.3847 -83.7761 351° North 160 184 10,100 60 Climbing Indianapolis Center
01:46PM 39.4019 -83.7842 340° North 158 182 10,100 -120 Level Indianapolis Center
01:46PM 39.4278 -83.7892 351° North 159 183 10,000 -120 Descending Indianapolis Center
01:47PM 39.4472 -83.7953 346° North 160 184 10,000  Level Indianapolis Center
01:48PM 39.4722 -83.8006 348° North 160 184 10,000  Level Indianapolis Center
01:48PM 39.4925 -83.8064 347° North 159 183 10,000 60 Level Indianapolis Center
01:49PM 39.5213 -83.8149 348° North  Level FlightAware Approximate
01:49PM 39.5231 -83.8139 349° North 158 182 10,100  Level Indianapolis Center
01:49PM 39.5394 -83.8206 343° North 160 184 10,000  Descending Indianapolis Center
01:50PM 39.5669 -83.8253 352° North 159 183 10,100  Climbing Indianapolis Center
01:50PM 39.5828 -83.8314 343° North 158 182 10,000  Descending Indianapolis Center
01:51PM 39.6108 -83.8383 349° North 159 183 10,100  Climbing Indianapolis Center
01:51PM 39.6258 -83.8422 349° North 161 185 10,000 -120 Descending Indianapolis Center
01:52PM 39.6550 -83.8500 348° North 161 185 10,000  Level Indianapolis Center
01:53PM 39.6994 -83.8625 348° North 161 185 10,100 60 Climbing Indianapolis Center
01:53PM 39.7142 -83.8669 347° North 161 185 10,100  Level Indianapolis Center
01:54PM 39.7436 -83.8750 348° North 161 185 10,100 -120 Level Indianapolis Center
01:54PM 39.7592 -83.8808 344° North 162 186 10,000  Descending Indianapolis Center
01:55PM 39.7881 -83.8867 351° North 160 184 10,100 60 Climbing Indianapolis Center
01:55PM 39.8044 -83.8922 345° North 161 185 10,100  Level Indianapolis Center
01:56PM 39.8322 -83.8981 351° North 159 183 10,100  Level Indianapolis Center
01:56PM 39.8475 -83.9031 346° North 161 185 10,100 -120 Level Indianapolis Center
01:57PM 39.8769 -83.9108 349° North 162 186 10,000  Descending Indianapolis Center
01:57PM 39.8969 -83.9150 351° North 163 188 10,100 60 Climbing Indianapolis Center
01:58PM 39.9217 -83.9231 346° North 162 186 10,100  Level Indianapolis Center
01:59PM 39.9669 -83.9350 349° North 163 188 10,100  Level Indianapolis Center
02:00PM 40.0183 -83.9497 348° North 162 186 10,100  Level Indianapolis Center
02:01PM 40.0636 -83.9614 349° North 163 188 10,100  Level Indianapolis Center
02:02PM 40.1078 -83.9736 348° North 161 185 10,100  Level Indianapolis Center
02:03PM 40.1531 -83.9858 348° North 162 186 10,100  Level Indianapolis Center
02:04PM 40.1972 -83.9983 348° North 162 186 10,100  Level Indianapolis Center
02:05PM 40.2408 -84.0094 349° North 158 182 10,100 -60 Level Indianapolis Center
02:06PM 40.2869 -84.0228 348° North 166 191 10,000  Descending Indianapolis Center
02:07PM 40.3358 -84.0375 347° North 162 186 10,100  Climbing Indianapolis Center
02:08PM 40.3753 -84.0481 348° North 162 186 10,100  Level Indianapolis Center
02:09PM 40.4272 -84.0619 348° North 162 186 10,100  Level Indianapolis Center
02:10PM 40.4711 -84.0739 348° North 160 184 10,100 -60 Level Indianapolis Center
02:11PM 40.5156 -84.0864 348° North 162 186 10,000 -60 Descending Indianapolis Center
02:12PM 40.5592 -84.0994 347° North 161 185 10,000  Level Indianapolis Center
02:13PM 40.6042 -84.1122 348° North 162 186 10,100  Climbing Indianapolis Center
02:14PM 40.6489 -84.1236 349° North 162 186 10,100  Level Indianapolis Center
02:15PM 40.6942 -84.1367 348° North 164 189 10,100 -60 Level Indianapolis Center
02:16PM 40.7389 -84.1481 349° North 162 186 10,000  Descending Indianapolis Center
02:17PM 40.7914 -84.1617 349° North 163 188 10,100  Climbing Indianapolis Center
02:18PM 40.8361 -84.1742 348° North 163 188 10,100  Level Indianapolis Center
02:19PM 40.8806 -84.1867 348° North 162 186 10,100 -60 Level Indianapolis Center
02:20PM 40.9242 -84.1994 348° North 159 183 10,000  Descending Indianapolis Center
02:22PM 40.9694 -84.2117 348° North 164 189 10,100  Climbing Indianapolis Center
02:23PM 41.0133 -84.2250 347° North 161 185 10,000  Descending Indianapolis Center
02:24PM 41.0575 -84.2369 348° North 161 185 10,100  Climbing Indianapolis Center
02:25PM 41.1025 -84.2500 348° North 162 186 10,100  Level Indianapolis Center
02:26PM 41.1472 -84.2619 349° North 163 188 10,100  Level Indianapolis Center
02:27PM 41.1994 -84.2783 347° North 164 189 10,100  Level Indianapolis Center
02:28PM 41.2444 -84.2911 348° North 164 189 10,100  Level Indianapolis Center